createdAt,value
2022-11-19T00:01:18.446Z,7.30
2022-11-19T00:03:51.181Z,6.85
2022-11-19T00:06:21.027Z,7.45
2022-11-19T00:08:48.229Z,7.45
2022-11-19T00:11:37.191Z,7.43
2022-11-19T00:14:04.988Z,6.85
2022-11-19T00:16:32.093Z,8.13
2022-11-19T00:18:59.337Z,7.70
2022-11-19T00:21:26.432Z,6.50
2022-11-19T00:23:54.706Z,6.90
2022-11-19T00:26:22.512Z,7.35
2022-11-19T00:28:49.800Z,7.55
2022-11-19T00:31:17.708Z,6.18
2022-11-19T00:33:45.514Z,7.05
2022-11-19T00:36:13.828Z,5.50
2022-11-19T00:38:41.072Z,7.03
2022-11-19T00:41:08.483Z,6.97
2022-11-19T00:43:48.281Z,6.53
2022-11-19T00:46:26.293Z,7.43
2022-11-19T00:48:54.495Z,6.72
2022-11-19T00:51:22.412Z,6.78
2022-11-19T00:53:49.651Z,6.93
2022-11-19T00:56:17.857Z,6.93
2022-11-19T00:58:45.476Z,6.35
2022-11-19T01:01:13.322Z,6.68
2022-11-19T01:03:41.427Z,6.15
2022-11-19T01:06:09.298Z,6.53
2022-11-19T01:08:36.965Z,7.05
2022-11-19T01:11:05.376Z,5.70
2022-11-19T01:13:35.344Z,6.80
2022-11-19T01:16:15.360Z,6.18
2022-11-19T01:18:43.552Z,7.13
2022-11-19T01:21:11.432Z,6.30
2022-11-19T01:23:39.207Z,5.95
2022-11-19T01:26:06.469Z,6.47
2022-11-19T01:32:06.380Z,5.80
2022-11-19T01:34:33.504Z,6.05
2022-11-19T01:37:00.701Z,5.97
2022-11-19T01:39:28.183Z,6.20
2022-11-19T01:41:55.345Z,6.15
2022-11-19T01:44:41.014Z,6.38
2022-11-19T01:47:08.134Z,6.28
2022-11-19T01:49:35.250Z,6.38
2022-11-19T01:52:03.586Z,6.65
2022-11-19T01:54:32.070Z,6.20
2022-11-19T01:57:02.396Z,6.10
2022-11-19T01:59:30.691Z,5.85
2022-11-19T02:01:58.213Z,5.63
2022-11-19T02:04:26.280Z,6.05
2022-11-19T02:06:53.500Z,6.13
2022-11-19T02:09:20.944Z,5.38
2022-11-19T02:12:13.846Z,5.93
2022-11-19T02:14:50.549Z,6.32
2022-11-19T02:17:29.803Z,6.05
2022-11-19T02:20:07.428Z,6.15
2022-11-19T02:22:43.460Z,5.40
2022-11-19T02:25:13.749Z,5.78
2022-11-19T02:27:46.762Z,5.72
2022-11-19T02:30:17.744Z,5.55
2022-11-19T02:32:47.642Z,6.05
2022-11-19T02:35:18.279Z,5.78
2022-11-19T02:37:57.460Z,5.85
2022-11-19T02:40:26.930Z,5.65
2022-11-19T02:42:57.607Z,5.28
2022-11-19T02:45:31.232Z,5.15
2022-11-19T02:48:02.017Z,5.90
2022-11-19T02:50:32.618Z,5.60
2022-11-19T02:53:00.026Z,5.57
2022-11-19T02:55:28.412Z,5.10
2022-11-19T02:58:06.906Z,5.90
2022-11-19T03:00:59.569Z,5.85
2022-11-19T03:03:45.862Z,4.93
2022-11-19T03:08:40.259Z,5.45
2022-11-19T03:11:11.137Z,5.50
2022-11-19T03:13:59.955Z,5.53
2022-11-19T03:16:41.715Z,6.05
2022-11-19T03:19:27.378Z,5.88
2022-11-19T03:22:01.321Z,4.80
2022-11-19T03:24:30.818Z,4.68
2022-11-19T03:27:13.174Z,5.18
2022-11-19T03:29:43.176Z,4.85
2022-11-19T03:32:22.453Z,5.75
2022-11-19T03:34:51.243Z,5.03
2022-11-19T03:37:20.361Z,5.38
2022-11-19T03:39:48.106Z,5.28
2022-11-19T03:42:16.776Z,5.38
2022-11-19T03:44:45.958Z,5.05
2022-11-19T03:47:15.418Z,5.43
2022-11-19T03:49:44.229Z,5.65
2022-11-19T03:52:13.571Z,5.88
2022-11-19T03:54:41.219Z,4.82
2022-11-19T03:57:09.185Z,5.35
2022-11-19T03:59:36.441Z,5.30
2022-11-19T04:02:05.209Z,5.20
2022-11-19T04:04:38.716Z,4.90
2022-11-19T04:07:06.789Z,5.13
2022-11-19T04:09:34.263Z,4.55
2022-11-19T04:12:01.633Z,5.35
2022-11-19T04:14:28.888Z,5.28
2022-11-19T04:16:56.762Z,5.15
2022-11-19T04:19:24.045Z,4.70
2022-11-19T04:21:51.329Z,5.15
2022-11-19T04:24:18.468Z,4.70
2022-11-19T04:26:45.604Z,4.78
2022-11-19T04:29:12.923Z,5.05
2022-11-19T04:31:40.157Z,4.50
2022-11-19T04:34:07.392Z,4.45
2022-11-19T04:36:34.554Z,4.70
2022-11-19T04:39:02.081Z,5.40
2022-11-19T04:41:29.276Z,4.38
2022-11-19T04:43:56.494Z,4.78
2022-11-19T04:46:23.637Z,4.57
2022-11-19T04:48:50.802Z,4.25
2022-11-19T04:51:18.032Z,4.40
2022-11-19T04:53:45.222Z,4.10
2022-11-19T04:56:12.358Z,4.60
2022-11-19T04:58:39.541Z,4.68
2022-11-19T05:01:07.127Z,4.63
2022-11-19T05:03:34.416Z,4.78
2022-11-19T05:06:01.945Z,4.43
2022-11-19T05:08:29.088Z,4.57
2022-11-19T05:10:56.303Z,4.97
2022-11-19T05:13:23.430Z,4.05
2022-11-19T05:15:50.532Z,5.05
2022-11-19T05:18:17.854Z,4.50
2022-11-19T05:20:45.059Z,4.57
2022-11-19T05:23:12.676Z,3.95
2022-11-19T05:25:39.875Z,4.57
2022-11-19T05:28:07.086Z,4.15
2022-11-19T05:30:34.272Z,4.45
2022-11-19T05:33:01.543Z,3.90
2022-11-19T05:35:28.732Z,4.00
2022-11-19T05:37:58.642Z,4.35
2022-11-19T05:40:25.792Z,4.38
2022-11-19T05:42:52.995Z,4.50
2022-11-19T05:45:20.182Z,4.35
2022-11-19T05:47:48.720Z,4.40
2022-11-19T05:50:16.411Z,4.70
2022-11-19T05:52:43.560Z,4.13
2022-11-19T05:55:10.782Z,4.38
2022-11-19T05:57:38.052Z,3.80
2022-11-19T06:00:05.934Z,4.63
2022-11-19T06:02:33.088Z,4.35
2022-11-19T06:05:00.306Z,4.18
2022-11-19T06:07:27.479Z,4.35
2022-11-19T06:09:54.653Z,3.92
2022-11-19T06:12:21.804Z,4.10
2022-11-19T06:14:49.194Z,4.07
2022-11-19T06:17:16.320Z,5.00
2022-11-19T06:19:43.574Z,5.00
2022-11-19T06:22:10.780Z,4.60
2022-11-19T06:24:37.945Z,5.20
2022-11-19T06:27:05.159Z,4.80
2022-11-19T06:29:32.313Z,5.13
2022-11-19T06:31:59.424Z,5.35
2022-11-19T06:34:26.586Z,5.72
2022-11-19T06:36:53.719Z,5.25
2022-11-19T06:39:21.356Z,4.82
2022-11-19T06:41:48.846Z,4.97
2022-11-19T06:44:16.134Z,4.82
2022-11-19T06:46:43.277Z,4.43
2022-11-19T06:49:14.267Z,5.30
2022-11-19T06:51:44.057Z,4.93
2022-11-19T06:54:11.185Z,4.82
2022-11-19T06:56:38.350Z,5.07
2022-11-19T06:59:05.466Z,5.75
2022-11-19T07:01:32.706Z,5.43
2022-11-19T07:03:59.962Z,5.63
2022-11-19T07:06:27.281Z,5.28
2022-11-19T07:08:54.437Z,5.30
2022-11-19T07:11:27.879Z,5.78
2022-11-19T07:13:58.698Z,7.13
2022-11-19T07:16:26.700Z,6.47
2022-11-19T07:18:54.095Z,5.60
2022-11-19T07:21:21.273Z,6.07
2022-11-19T07:23:48.463Z,5.72
2022-11-19T07:26:15.941Z,6.35
2022-11-19T07:28:43.169Z,7.15
2022-11-19T07:31:10.384Z,6.57
2022-11-19T07:33:39.255Z,6.20
2022-11-19T07:36:07.831Z,7.13
2022-11-19T07:38:37.123Z,6.20
2022-11-19T07:41:24.914Z,7.53
2022-11-19T07:43:52.100Z,6.68
2022-11-19T07:46:19.263Z,6.03
2022-11-19T07:48:46.510Z,6.47
2022-11-19T07:51:13.804Z,6.20
2022-11-19T07:53:42.777Z,6.28
2022-11-19T07:56:09.942Z,6.35
2022-11-19T07:58:37.160Z,6.15
2022-11-19T08:01:10.882Z,5.85
2022-11-19T08:03:38.284Z,6.15
2022-11-19T08:06:06.305Z,5.95
2022-11-19T08:08:33.898Z,6.32
2022-11-19T08:11:07.928Z,5.55
2022-11-19T08:13:35.796Z,6.10
2022-11-19T08:16:04.521Z,6.13
2022-11-19T08:18:32.060Z,5.68
2022-11-19T08:21:09.679Z,5.07
2022-11-19T08:23:37.670Z,5.60
2022-11-19T08:26:06.748Z,5.63
2022-11-19T08:28:34.064Z,6.15
2022-11-19T08:31:08.228Z,5.85
2022-11-19T08:33:35.878Z,6.13
2022-11-19T08:36:03.376Z,5.75
2022-11-19T08:38:34.524Z,5.05
2022-11-19T08:41:30.628Z,5.78
2022-11-19T08:44:00.523Z,5.75
2022-11-19T08:46:27.684Z,5.93
2022-11-19T08:48:54.815Z,5.35
2022-11-19T08:51:21.931Z,5.45
2022-11-19T08:53:49.097Z,5.68
2022-11-19T08:56:18.142Z,5.20
2022-11-19T08:58:45.507Z,5.15
2022-11-19T09:01:13.576Z,5.63
2022-11-19T09:03:40.784Z,5.45
2022-11-19T09:06:08.427Z,5.53
2022-11-19T09:08:35.588Z,5.05
2022-11-19T09:11:10.241Z,5.57
2022-11-19T09:13:37.644Z,4.85
2022-11-19T09:16:05.391Z,5.28
2022-11-19T09:18:33.350Z,5.07
2022-11-19T09:21:00.590Z,5.18
2022-11-19T09:23:28.151Z,4.78
2022-11-19T09:26:05.823Z,5.18
2022-11-19T09:28:33.161Z,5.10
2022-11-19T09:31:05.825Z,5.00
2022-11-19T09:33:33.751Z,5.18
2022-11-19T09:36:01.104Z,5.45
2022-11-19T09:38:28.325Z,5.10
2022-11-19T09:40:56.489Z,4.97
2022-11-19T09:43:26.528Z,4.80
2022-11-19T09:46:14.722Z,4.82
2022-11-19T09:48:51.327Z,4.60
2022-11-19T09:51:22.327Z,5.40
2022-11-19T09:53:55.570Z,4.60
2022-11-19T09:56:31.528Z,4.80
2022-11-19T09:58:59.811Z,4.95
2022-11-19T10:01:30.270Z,4.90
2022-11-19T10:03:57.609Z,4.72
2022-11-19T10:06:28.529Z,5.18
2022-11-19T10:09:13.798Z,4.28
2022-11-19T10:11:41.003Z,4.82
2022-11-19T10:14:27.171Z,4.80
2022-11-19T10:16:54.319Z,4.47
2022-11-19T10:19:39.693Z,5.35
2022-11-19T10:22:18.952Z,4.67
2022-11-19T10:24:49.962Z,5.18
2022-11-19T10:27:24.083Z,4.35
2022-11-19T10:29:55.700Z,5.65
2022-11-19T10:32:32.675Z,5.13
2022-11-19T10:35:03.786Z,5.18
2022-11-19T10:37:34.119Z,5.05
2022-11-19T10:40:06.796Z,4.80
2022-11-19T10:42:36.587Z,5.03
2022-11-19T10:45:15.976Z,5.65
2022-11-19T10:47:57.778Z,5.15
2022-11-19T10:50:25.742Z,5.68
2022-11-19T10:52:57.270Z,5.28
2022-11-19T10:55:27.128Z,4.57
2022-11-19T10:58:01.276Z,5.25
2022-11-19T11:00:28.443Z,5.30
2022-11-19T11:03:03.066Z,5.63
2022-11-19T11:05:30.630Z,6.07
2022-11-19T11:07:59.205Z,6.45
2022-11-19T11:10:32.435Z,5.13
2022-11-19T11:13:25.692Z,5.22
2022-11-19T11:15:53.173Z,5.82
2022-11-19T11:18:20.335Z,5.35
2022-11-19T11:20:49.675Z,5.00
2022-11-19T11:23:18.763Z,5.38
2022-11-19T11:25:57.379Z,5.57
2022-11-19T11:28:25.392Z,5.18
2022-11-19T11:30:54.348Z,5.57
2022-11-19T11:33:35.902Z,5.28
2022-11-19T11:36:09.210Z,5.60
2022-11-19T11:38:44.483Z,5.25
2022-11-19T11:42:03.729Z,5.65
2022-11-19T11:44:05.723Z,6.32
2022-11-19T11:46:36.045Z,5.60
2022-11-19T11:49:09.761Z,6.32
2022-11-19T11:51:42.084Z,6.50
2022-11-19T11:54:19.972Z,7.20
2022-11-19T11:56:47.198Z,9.98
2022-11-19T11:59:15.875Z,13.32
2022-11-19T12:01:43.738Z,13.40
2022-11-19T12:04:13.323Z,11.27
2022-11-19T12:06:46.117Z,11.25
2022-11-19T12:09:36.305Z,11.60
2022-11-19T12:12:14.014Z,12.50
2022-11-19T12:14:46.610Z,11.65
2022-11-19T12:17:24.347Z,13.70
2022-11-19T12:20:10.134Z,10.85
2022-11-19T12:22:48.680Z,12.50
2022-11-19T12:25:35.079Z,12.07
2022-11-19T12:28:24.088Z,11.07
2022-11-19T12:30:57.153Z,11.73
2022-11-19T12:33:39.342Z,12.05
2022-11-19T12:36:14.964Z,11.30
2022-11-19T12:38:48.451Z,11.38
2022-11-19T12:41:27.675Z,11.10
2022-11-19T12:43:54.858Z,12.55
2022-11-19T12:46:27.809Z,11.85
2022-11-19T12:49:10.101Z,12.00
2022-11-19T12:51:55.654Z,12.40
2022-11-19T12:54:35.685Z,12.98
2022-11-19T12:57:02.896Z,10.95
2022-11-19T12:59:48.952Z,11.45
2022-11-19T13:02:19.344Z,10.70
2022-11-19T13:04:50.218Z,11.00
2022-11-19T13:07:23.409Z,10.95
2022-11-19T13:10:05.566Z,11.25
2022-11-19T13:12:35.871Z,11.45
2022-11-19T13:15:15.977Z,10.45
2022-11-19T13:17:45.200Z,11.27
2022-11-19T13:20:22.385Z,9.93
2022-11-19T13:22:50.185Z,10.35
2022-11-19T13:25:21.186Z,10.32
2022-11-19T13:27:49.696Z,10.07
2022-11-19T13:30:21.247Z,9.35
2022-11-19T13:33:03.884Z,10.02
2022-11-19T13:35:34.884Z,10.25
2022-11-19T13:38:15.237Z,9.93
2022-11-19T13:40:46.375Z,10.45
2022-11-19T13:43:37.175Z,10.93
2022-11-19T13:46:19.364Z,10.20
2022-11-19T13:48:58.796Z,10.75
2022-11-19T13:51:32.519Z,8.70
2022-11-19T13:54:03.415Z,9.63
2022-11-19T13:56:47.680Z,10.93
2022-11-19T13:59:23.678Z,10.10
2022-11-19T14:02:14.954Z,10.65
2022-11-19T14:04:44.909Z,9.90
2022-11-19T14:07:18.037Z,10.18
2022-11-19T14:09:45.172Z,9.73
2022-11-19T14:12:12.269Z,8.70
2022-11-19T14:14:57.907Z,9.82
2022-11-19T14:18:05.074Z,9.82
2022-11-19T14:23:55.311Z,11.88
2022-11-19T14:26:40.780Z,10.40
2022-11-19T14:29:28.194Z,10.20
2022-11-19T14:32:05.259Z,10.07
2022-11-19T14:34:36.584Z,11.25
2022-11-19T14:37:05.563Z,10.75
2022-11-19T14:39:33.662Z,10.93
2022-11-19T14:42:14.641Z,10.52
2022-11-19T14:44:42.341Z,9.63
2022-11-19T14:47:33.452Z,9.85
2022-11-19T14:50:02.104Z,10.23
2022-11-19T14:52:32.067Z,9.23
2022-11-19T14:55:01.007Z,10.63
2022-11-19T14:57:33.015Z,10.20
2022-11-19T15:00:02.099Z,10.60
2022-11-19T15:02:34.246Z,10.85
2022-11-19T15:05:13.434Z,11.20
2022-11-19T15:07:52.894Z,11.20
2022-11-19T15:10:31.119Z,10.43
2022-11-19T15:13:18.697Z,11.32
2022-11-19T15:15:46.621Z,9.52
2022-11-19T15:18:16.537Z,10.88
2022-11-19T15:20:58.676Z,10.00
2022-11-19T15:23:29.911Z,9.73
2022-11-19T15:26:15.857Z,11.57
2022-11-19T15:29:00.347Z,10.90
2022-11-19T15:31:27.490Z,10.82
2022-11-19T15:34:06.371Z,11.38
2022-11-19T15:36:36.436Z,10.80
2022-11-19T15:39:10.233Z,12.48
2022-11-19T15:41:39.994Z,10.00
2022-11-19T15:44:10.035Z,10.82
2022-11-19T15:46:41.662Z,11.60
2022-11-19T15:49:29.121Z,10.55
2022-11-19T15:52:02.150Z,11.10
2022-11-19T15:54:33.429Z,9.98
2022-11-19T15:57:06.162Z,11.23
2022-11-19T15:59:35.087Z,10.40
2022-11-19T16:02:07.086Z,11.10
2022-11-19T16:04:38.412Z,11.65
2022-11-19T16:07:06.938Z,11.10
2022-11-19T16:09:34.712Z,10.45
2022-11-19T16:12:20.764Z,10.40
2022-11-19T16:15:12.896Z,12.25
2022-11-19T16:17:46.752Z,11.30
2022-11-19T16:20:13.867Z,11.32
2022-11-19T16:22:44.004Z,10.80
2022-11-19T16:25:15.528Z,10.25
2022-11-19T16:27:43.108Z,10.32
2022-11-19T16:30:19.526Z,10.10
2022-11-19T16:32:46.966Z,10.48
2022-11-19T16:35:24.759Z,9.60
2022-11-19T16:37:53.254Z,9.32
2022-11-19T16:40:21.166Z,10.15
2022-11-19T16:42:51.163Z,9.73
2022-11-19T16:45:21.111Z,10.73
2022-11-19T16:48:02.256Z,10.18
2022-11-19T16:50:38.187Z,10.95
2022-11-19T16:53:09.190Z,10.43
2022-11-19T16:55:42.674Z,10.20
2022-11-19T16:58:25.614Z,10.68
2022-11-19T17:00:55.243Z,10.30
2022-11-19T17:03:23.687Z,10.07
2022-11-19T17:05:54.471Z,9.32
2022-11-19T17:08:29.500Z,10.27
2022-11-19T17:11:33.456Z,9.82
2022-11-19T17:14:26.877Z,9.57
2022-11-19T17:16:54.248Z,9.10
2022-11-19T17:19:25.352Z,8.77
2022-11-19T17:21:56.675Z,9.13
2022-11-19T17:24:27.996Z,9.15
2022-11-19T17:26:55.755Z,8.85
2022-11-19T17:29:23.687Z,9.77
2022-11-19T17:31:55.840Z,8.68
2022-11-19T17:34:33.473Z,10.25
2022-11-19T17:37:00.904Z,9.00
2022-11-19T17:39:28.095Z,9.50
2022-11-19T17:42:14.862Z,9.25
2022-11-19T17:44:42.306Z,9.50
2022-11-19T17:47:22.218Z,9.77
2022-11-19T17:49:50.446Z,8.70
2022-11-19T17:52:21.739Z,9.10
2022-11-19T17:54:49.293Z,9.77
2022-11-19T17:57:16.410Z,8.90
2022-11-19T17:59:43.628Z,10.27
2022-11-19T18:02:14.075Z,11.00
2022-11-19T18:04:42.544Z,11.27
2022-11-19T18:07:09.761Z,10.30
2022-11-19T18:09:36.962Z,10.85
2022-11-19T18:12:05.012Z,10.10
2022-11-19T18:14:32.194Z,10.07
2022-11-19T18:16:59.348Z,10.77
2022-11-19T18:19:28.492Z,10.15
2022-11-19T18:21:55.960Z,10.85
2022-11-19T18:24:23.128Z,11.02
2022-11-19T18:26:50.319Z,10.30
2022-11-19T18:29:17.448Z,11.55
2022-11-19T18:31:45.997Z,11.02
2022-11-19T18:34:20.110Z,11.15
2022-11-19T18:36:47.451Z,10.85
2022-11-19T18:39:14.581Z,10.73
2022-11-19T18:41:41.744Z,10.93
2022-11-19T18:44:32.294Z,11.82
2022-11-19T18:47:00.364Z,9.82
2022-11-19T18:49:27.913Z,10.80
2022-11-19T18:51:55.184Z,10.18
2022-11-19T18:54:22.506Z,10.25
2022-11-19T18:56:49.702Z,9.68
2022-11-19T18:59:16.881Z,11.63
2022-11-19T19:01:44.092Z,10.60
2022-11-19T19:04:14.276Z,10.20
2022-11-19T19:06:42.330Z,9.48
2022-11-19T19:09:11.074Z,10.00
2022-11-19T19:11:57.598Z,10.10
2022-11-19T19:14:24.813Z,10.48
2022-11-19T19:16:53.352Z,10.32
2022-11-19T19:19:20.999Z,17.00
2022-11-19T19:21:48.819Z,20.45
2022-11-19T19:24:16.013Z,28.48
2022-11-19T19:26:43.170Z,28.00
2022-11-19T19:29:10.556Z,26.10
2022-11-19T19:31:38.028Z,25.88
2022-11-19T19:34:05.257Z,27.48
2022-11-19T19:36:32.582Z,26.25
2022-11-19T19:38:59.786Z,24.88
2022-11-19T19:41:28.331Z,24.05
2022-11-19T19:43:57.425Z,24.15
2022-11-19T19:46:25.085Z,22.95
2022-11-19T19:48:53.368Z,20.92
2022-11-19T19:51:21.374Z,20.73
2022-11-19T19:53:49.156Z,18.55
2022-11-19T19:56:20.885Z,14.43
2022-11-19T19:58:49.219Z,13.35
2022-11-19T20:01:17.774Z,13.60
2022-11-19T20:03:47.347Z,15.00
2022-11-19T20:06:18.843Z,15.02
2022-11-19T20:08:46.458Z,15.52
2022-11-19T20:11:14.848Z,15.82
2022-11-19T20:13:42.316Z,14.23
2022-11-19T20:16:16.162Z,14.35
2022-11-19T20:18:45.130Z,14.27
2022-11-19T20:21:13.400Z,12.80
2022-11-19T20:23:41.915Z,13.75
2022-11-19T20:26:11.314Z,12.10
2022-11-19T20:28:38.514Z,12.40
2022-11-19T20:31:05.652Z,11.43
2022-11-19T20:33:32.820Z,12.70
2022-11-19T20:36:00.024Z,11.38
2022-11-19T20:38:27.362Z,11.07
2022-11-19T20:40:58.945Z,11.32
2022-11-19T20:43:50.180Z,10.23
2022-11-19T20:46:20.668Z,11.68
2022-11-19T20:48:48.524Z,11.25
2022-11-19T20:51:20.600Z,10.40
2022-11-19T20:53:47.772Z,10.90
2022-11-19T20:56:15.017Z,10.32
2022-11-19T20:58:42.481Z,10.30
2022-11-19T21:01:10.450Z,10.38
2022-11-19T21:03:38.113Z,11.13
2022-11-19T21:06:07.154Z,10.23
2022-11-19T21:08:34.636Z,10.85
2022-11-19T21:11:03.244Z,9.63
2022-11-19T21:13:30.777Z,10.35
2022-11-19T21:15:59.265Z,9.73
2022-11-19T21:18:29.224Z,10.68
2022-11-19T21:21:01.976Z,9.05
2022-11-19T21:23:29.358Z,10.02
2022-11-19T21:26:03.369Z,9.75
2022-11-19T21:28:30.733Z,9.88
2022-11-19T21:30:58.066Z,9.35
2022-11-19T21:33:28.119Z,9.43
2022-11-19T21:35:56.137Z,8.93
2022-11-19T21:38:23.634Z,9.45
2022-11-19T21:40:51.519Z,8.95
2022-11-19T21:43:19.116Z,9.98
2022-11-19T21:45:46.721Z,9.60
2022-11-19T21:48:13.975Z,10.02
2022-11-19T21:50:41.782Z,9.93
2022-11-19T21:53:09.573Z,10.00
2022-11-19T21:55:36.842Z,10.10
2022-11-19T21:58:04.922Z,9.57
2022-11-19T22:00:32.838Z,8.88
2022-11-19T22:03:00.499Z,10.90
2022-11-19T22:05:27.971Z,12.13
2022-11-19T22:07:55.134Z,11.25
2022-11-19T22:10:22.280Z,9.88
2022-11-19T22:12:49.407Z,9.85
2022-11-19T22:15:16.565Z,10.02
2022-11-19T22:17:43.746Z,9.85
2022-11-19T22:20:11.132Z,11.10
2022-11-19T22:22:38.910Z,9.85
2022-11-19T22:25:06.207Z,9.30
2022-11-19T22:27:33.352Z,10.35
2022-11-19T22:30:04.509Z,9.80
2022-11-19T22:32:33.138Z,9.13
2022-11-19T22:35:00.233Z,9.88
2022-11-19T22:37:27.367Z,10.60
2022-11-19T22:39:54.470Z,10.55
2022-11-19T22:42:24.419Z,9.98
2022-11-19T22:44:52.218Z,9.85
2022-11-19T22:47:19.416Z,8.90
2022-11-19T22:49:46.605Z,9.32
2022-11-19T22:52:15.603Z,9.52
2022-11-19T22:54:42.774Z,10.32
2022-11-19T22:57:10.451Z,10.00
2022-11-19T22:59:37.594Z,10.05
2022-11-19T23:02:04.774Z,10.38
2022-11-19T23:04:32.006Z,9.73
2022-11-19T23:06:59.227Z,10.05
2022-11-19T23:09:26.407Z,9.85
2022-11-19T23:12:12.338Z,9.95
2022-11-19T23:14:39.461Z,8.63
2022-11-19T23:17:06.641Z,9.20
2022-11-19T23:19:33.790Z,9.32
2022-11-19T23:22:00.994Z,8.93
2022-11-19T23:24:28.153Z,10.15
2022-11-19T23:26:55.271Z,9.73
2022-11-19T23:29:22.687Z,9.15
2022-11-19T23:31:50.086Z,8.70
2022-11-19T23:34:17.254Z,9.23
2022-11-19T23:36:44.402Z,8.77
2022-11-19T23:39:15.086Z,9.13
2022-11-19T23:41:42.387Z,8.95
2022-11-19T23:44:09.500Z,8.40
2022-11-19T23:46:36.805Z,8.68
2022-11-19T23:49:05.438Z,9.27
2022-11-19T23:51:34.147Z,7.82
2022-11-19T23:54:01.465Z,9.18
2022-11-19T23:56:30.019Z,8.23
2022-11-19T23:58:57.467Z,8.85
